createdAt,value
2022-10-15T00:01:27.454Z,45.70
2022-10-15T00:03:55.304Z,44.90
2022-10-15T00:06:23.074Z,42.50
2022-10-15T00:08:50.712Z,43.60
2022-10-15T00:11:21.563Z,44.80
2022-10-15T00:13:50.867Z,42.60
2022-10-15T00:16:22.635Z,45.30
2022-10-15T00:18:50.530Z,45.80
2022-10-15T00:21:20.336Z,45.70
2022-10-15T00:23:49.131Z,46.40
2022-10-15T00:26:19.975Z,48.80
2022-10-15T00:28:50.461Z,45.10
2022-10-15T00:31:23.145Z,46.60
2022-10-15T00:33:52.170Z,47.00
2022-10-15T00:36:22.317Z,49.30
2022-10-15T00:38:51.445Z,46.20
2022-10-15T00:41:24.315Z,46.50
2022-10-15T00:43:54.846Z,47.60
2022-10-15T00:46:25.920Z,46.90
2022-10-15T00:48:58.336Z,47.70
2022-10-15T00:51:31.737Z,45.60
2022-10-15T00:54:00.516Z,47.30
2022-10-15T00:56:31.105Z,45.70
2022-10-15T00:58:59.832Z,46.30
2022-10-15T01:01:27.724Z,49.30
2022-10-15T01:03:55.819Z,46.60
2022-10-15T01:06:24.676Z,49.50
2022-10-15T01:08:52.745Z,45.00
2022-10-15T01:11:49.598Z,47.80
2022-10-15T01:14:40.475Z,49.00
2022-10-15T01:17:22.223Z,48.40
2022-10-15T01:20:02.939Z,47.20
2022-10-15T01:22:55.379Z,48.70
2022-10-15T01:25:41.991Z,49.20
2022-10-15T01:28:40.793Z,46.90
2022-10-15T01:31:29.316Z,46.90
2022-10-15T01:34:26.447Z,47.30
2022-10-15T01:37:09.923Z,47.10
2022-10-15T01:39:46.188Z,46.40
2022-10-15T01:42:21.048Z,46.10
2022-10-15T01:44:53.454Z,48.20
2022-10-15T01:47:48.612Z,49.50
2022-10-15T01:50:23.643Z,47.70
2022-10-15T01:52:53.268Z,48.10
2022-10-15T01:55:23.707Z,46.40
2022-10-15T01:57:52.888Z,48.40
2022-10-15T02:00:20.780Z,45.20
2022-10-15T02:02:50.864Z,46.40
2022-10-15T02:05:29.453Z,44.10
2022-10-15T02:08:38.749Z,47.10
2022-10-15T02:11:10.715Z,48.60
2022-10-15T02:14:09.205Z,47.30
2022-10-15T02:17:02.038Z,47.20
2022-10-15T02:19:36.274Z,49.10
2022-10-15T02:22:11.965Z,48.10
2022-10-15T02:25:18.085Z,48.60
2022-10-15T02:27:50.536Z,48.10
2022-10-15T02:30:19.180Z,47.30
2022-10-15T02:32:52.346Z,47.40
2022-10-15T02:35:24.151Z,49.10
2022-10-15T02:37:54.540Z,46.80
2022-10-15T02:40:27.799Z,49.30
2022-10-15T02:42:56.351Z,48.90
2022-10-15T02:45:24.063Z,48.10
2022-10-15T02:47:51.796Z,49.10
2022-10-15T02:50:19.506Z,50.40
2022-10-15T02:52:47.256Z,46.50
2022-10-15T02:55:15.226Z,50.10
2022-10-15T02:57:42.848Z,48.70
2022-10-15T03:00:11.423Z,48.10
2022-10-15T03:02:39.573Z,50.60
2022-10-15T03:05:08.003Z,49.20
2022-10-15T03:07:36.314Z,50.70
2022-10-15T03:10:04.990Z,46.60
2022-10-15T03:12:33.426Z,46.20
2022-10-15T03:15:01.179Z,46.80
2022-10-15T03:17:29.230Z,48.10
2022-10-15T03:19:56.878Z,48.00
2022-10-15T03:22:24.722Z,47.00
2022-10-15T03:24:53.816Z,46.90
2022-10-15T03:27:26.292Z,48.80
2022-10-15T03:29:54.410Z,47.50
2022-10-15T03:32:23.006Z,45.60
2022-10-15T03:34:50.714Z,47.10
2022-10-15T03:37:18.838Z,46.80
2022-10-15T03:39:46.620Z,45.40
2022-10-15T03:42:15.050Z,46.00
2022-10-15T03:44:48.732Z,49.50
2022-10-15T03:47:18.724Z,46.70
2022-10-15T03:49:48.087Z,49.20
2022-10-15T03:52:16.533Z,49.60
2022-10-15T03:54:44.422Z,47.90
2022-10-15T03:57:12.775Z,47.90
2022-10-15T03:59:45.549Z,47.60
2022-10-15T04:02:14.437Z,49.20
2022-10-15T04:04:42.869Z,48.20
2022-10-15T04:07:10.777Z,45.50
2022-10-15T04:09:39.219Z,46.10
2022-10-15T04:12:25.698Z,51.70
2022-10-15T04:14:53.749Z,51.70
2022-10-15T04:17:22.540Z,48.70
2022-10-15T04:19:50.407Z,48.40
2022-10-15T04:22:18.504Z,45.50
2022-10-15T04:24:49.218Z,48.60
2022-10-15T04:27:26.088Z,47.60
2022-10-15T04:29:56.277Z,44.60
2022-10-15T04:32:24.375Z,48.60
2022-10-15T04:34:52.260Z,46.70
2022-10-15T04:37:25.945Z,44.50
2022-10-15T04:39:54.326Z,47.70
2022-10-15T04:42:22.364Z,43.70
2022-10-15T04:44:50.000Z,46.10
2022-10-15T04:47:17.668Z,46.00
2022-10-15T04:49:49.982Z,45.40
2022-10-15T04:52:43.872Z,44.10
2022-10-15T04:55:12.907Z,42.60
2022-10-15T04:57:40.561Z,41.50
2022-10-15T05:00:09.098Z,46.40
2022-10-15T05:02:55.238Z,46.40
2022-10-15T05:05:41.513Z,42.40
2022-10-15T05:08:09.503Z,44.10
2022-10-15T05:11:03.483Z,45.90
2022-10-15T05:13:32.463Z,44.60
2022-10-15T05:16:15.368Z,42.40
2022-10-15T05:18:44.863Z,45.60
2022-10-15T05:21:13.619Z,46.90
2022-10-15T05:23:41.730Z,42.80
2022-10-15T05:26:19.535Z,44.80
2022-10-15T05:28:48.589Z,42.10
2022-10-15T05:31:27.080Z,45.30
2022-10-15T05:34:07.335Z,45.70
2022-10-15T05:36:38.697Z,45.70
2022-10-15T05:39:10.690Z,44.80
2022-10-15T05:41:42.132Z,45.20
2022-10-15T05:44:10.066Z,43.30
2022-10-15T05:46:38.623Z,45.00
2022-10-15T05:49:06.502Z,42.00
2022-10-15T05:51:44.803Z,45.40
2022-10-15T05:54:17.984Z,44.80
2022-10-15T05:56:45.588Z,44.30
2022-10-15T05:59:13.240Z,44.30
2022-10-15T06:01:40.960Z,45.70
2022-10-15T06:04:09.376Z,47.30
2022-10-15T06:06:37.910Z,40.80
2022-10-15T06:09:05.568Z,40.60
2022-10-15T06:11:36.502Z,42.60
2022-10-15T06:14:04.289Z,41.00
2022-10-15T06:16:33.322Z,43.60
2022-10-15T06:19:01.145Z,44.30
2022-10-15T06:21:29.552Z,42.50
2022-10-15T06:23:57.271Z,43.20
2022-10-15T06:26:24.898Z,43.30
2022-10-15T06:28:52.633Z,42.00
2022-10-15T06:31:20.342Z,41.20
2022-10-15T06:33:47.976Z,43.30
2022-10-15T06:36:15.796Z,41.90
2022-10-15T06:38:46.342Z,40.20
2022-10-15T06:41:14.009Z,42.70
2022-10-15T06:43:41.699Z,43.10
2022-10-15T06:46:10.112Z,44.70
2022-10-15T06:48:37.894Z,42.00
2022-10-15T06:51:05.720Z,42.20
2022-10-15T06:53:33.873Z,42.30
2022-10-15T06:56:04.257Z,39.90
2022-10-15T06:58:36.955Z,40.40
2022-10-15T07:01:06.608Z,41.50
2022-10-15T07:03:34.549Z,42.00
2022-10-15T07:06:04.309Z,45.50
2022-10-15T07:08:32.444Z,40.80
2022-10-15T07:11:04.972Z,39.50
2022-10-15T07:13:33.166Z,37.90
2022-10-15T07:16:09.308Z,36.80
2022-10-15T07:18:38.066Z,36.60
2022-10-15T07:21:08.013Z,38.60
2022-10-15T07:23:35.806Z,38.00
2022-10-15T07:26:03.516Z,36.60
2022-10-15T07:28:31.512Z,37.50
2022-10-15T07:31:04.083Z,37.40
2022-10-15T07:33:34.395Z,38.60
2022-10-15T07:36:07.985Z,35.80
2022-10-15T07:38:36.001Z,34.90
2022-10-15T07:41:04.753Z,34.00
2022-10-15T07:43:34.350Z,32.70
2022-10-15T07:46:02.802Z,34.10
2022-10-15T07:48:30.810Z,33.00
2022-10-15T07:51:04.126Z,33.80
2022-10-15T07:53:32.776Z,33.70
2022-10-15T07:56:07.832Z,32.10
2022-10-15T07:58:38.034Z,32.20
2022-10-15T08:01:07.869Z,31.30
2022-10-15T08:03:36.404Z,30.10
2022-10-15T08:06:06.116Z,33.30
2022-10-15T08:08:34.567Z,30.10
2022-10-15T08:11:07.662Z,30.60
2022-10-15T08:13:35.606Z,31.20
2022-10-15T08:16:03.504Z,30.40
2022-10-15T08:18:31.172Z,30.40
2022-10-15T08:21:00.544Z,30.90
2022-10-15T08:23:28.494Z,29.20
2022-10-15T08:25:58.651Z,30.00
2022-10-15T08:28:29.588Z,29.40
2022-10-15T08:31:02.706Z,33.10
2022-10-15T08:33:35.077Z,27.20
2022-10-15T08:36:08.383Z,42.80
2022-10-15T08:38:36.277Z,31.40
2022-10-15T08:41:16.232Z,29.20
2022-10-15T08:43:46.563Z,27.30
2022-10-15T08:46:23.997Z,29.20
2022-10-15T08:48:55.517Z,28.00
2022-10-15T08:51:28.510Z,28.10
2022-10-15T08:54:06.636Z,28.70
2022-10-15T08:56:43.455Z,28.70
2022-10-15T08:59:38.775Z,27.80
2022-10-15T09:02:22.389Z,28.60
2022-10-15T09:05:15.545Z,27.70
2022-10-15T09:07:52.218Z,30.80
2022-10-15T09:10:38.923Z,28.00
2022-10-15T09:13:28.136Z,27.70
2022-10-15T09:16:11.363Z,28.70
2022-10-15T09:18:44.366Z,27.20
2022-10-15T09:21:14.675Z,27.40
2022-10-15T09:23:44.304Z,26.20
2022-10-15T09:26:11.874Z,27.20
2022-10-15T09:29:07.882Z,26.90
2022-10-15T09:31:45.871Z,25.80
2022-10-15T09:34:23.409Z,26.20
2022-10-15T09:36:57.876Z,28.60
2022-10-15T09:39:59.771Z,28.30
2022-10-15T09:42:31.845Z,25.60
2022-10-15T09:45:04.038Z,25.20
2022-10-15T09:47:34.576Z,24.90
2022-10-15T09:50:08.705Z,24.90
2022-10-15T09:52:48.313Z,22.10
2022-10-15T09:55:38.357Z,23.80
2022-10-15T09:58:15.791Z,25.20
2022-10-15T10:01:05.767Z,24.30
2022-10-15T10:03:40.589Z,24.30
2022-10-15T10:06:12.069Z,24.10
2022-10-15T10:08:58.028Z,22.50
2022-10-15T10:11:27.320Z,25.20
2022-10-15T10:13:57.900Z,23.40
2022-10-15T10:16:27.144Z,21.20
2022-10-15T10:19:17.403Z,20.40
2022-10-15T10:21:46.585Z,23.00
2022-10-15T10:24:34.524Z,22.20
2022-10-15T10:29:41.275Z,22.20
2022-10-15T10:32:12.258Z,20.90
2022-10-15T10:34:44.812Z,20.50
2022-10-15T10:37:14.369Z,21.40
2022-10-15T10:39:43.194Z,21.00
2022-10-15T10:42:34.536Z,24.10
2022-10-15T10:45:18.660Z,20.90
2022-10-15T10:47:47.521Z,21.00
2022-10-15T10:50:40.749Z,20.00
2022-10-15T10:53:22.349Z,21.10
2022-10-15T10:55:52.577Z,22.80
2022-10-15T10:58:27.004Z,20.10
2022-10-15T11:00:58.123Z,20.10
2022-10-15T11:03:41.025Z,20.40
2022-10-15T11:06:23.897Z,19.90
2022-10-15T11:09:15.024Z,18.70
2022-10-15T11:11:43.630Z,19.70
2022-10-15T11:14:18.560Z,19.00
2022-10-15T11:17:02.771Z,20.10
2022-10-15T11:23:02.625Z,19.70
2022-10-15T11:25:51.459Z,19.50
2022-10-15T11:28:49.725Z,17.40
2022-10-15T11:32:01.587Z,19.10
2022-10-15T11:34:55.635Z,18.10
2022-10-15T11:37:57.344Z,17.70
2022-10-15T11:40:47.939Z,18.30
2022-10-15T11:43:32.717Z,18.70
2022-10-15T11:46:24.925Z,18.80
2022-10-15T11:49:20.931Z,17.90
2022-10-15T11:52:16.621Z,17.90
2022-10-15T11:55:05.142Z,18.70
2022-10-15T11:57:35.589Z,18.70
2022-10-15T12:00:17.040Z,19.30
2022-10-15T12:02:45.401Z,18.40
2022-10-15T12:05:21.243Z,19.00
2022-10-15T12:07:50.115Z,17.40
2022-10-15T12:10:26.073Z,18.00
2022-10-15T12:12:56.737Z,18.20
2022-10-15T12:15:34.084Z,17.80
2022-10-15T12:18:29.470Z,17.90
2022-10-15T12:20:59.140Z,17.70
2022-10-15T12:23:34.855Z,18.60
2022-10-15T12:26:27.752Z,17.50
2022-10-15T12:29:00.930Z,18.50
2022-10-15T12:31:52.837Z,17.60
2022-10-15T12:34:41.543Z,16.40
2022-10-15T12:37:19.798Z,16.90
2022-10-15T12:39:56.732Z,17.80
2022-10-15T12:42:33.330Z,18.90
2022-10-15T12:45:06.343Z,17.50
2022-10-15T12:47:55.935Z,16.70
2022-10-15T12:50:32.723Z,17.70
2022-10-15T12:53:02.385Z,19.00
2022-10-15T12:55:36.349Z,17.60
2022-10-15T12:58:06.925Z,18.50
2022-10-15T13:00:37.691Z,17.50
2022-10-15T13:03:36.267Z,16.80
2022-10-15T13:06:38.346Z,16.20
2022-10-15T13:09:12.346Z,16.80
2022-10-15T13:14:32.325Z,17.40
2022-10-15T13:17:04.984Z,19.20
2022-10-15T13:21:08.634Z,19.90
2022-10-15T13:23:49.038Z,16.80
2022-10-15T13:26:27.143Z,17.40
2022-10-15T13:28:58.040Z,18.70
2022-10-15T13:31:30.787Z,19.30
2022-10-15T13:34:07.002Z,17.50
2022-10-15T13:36:35.792Z,17.70
2022-10-15T13:39:06.864Z,16.90
2022-10-15T13:41:38.064Z,18.10
2022-10-15T13:44:06.186Z,17.20
2022-10-15T13:46:37.634Z,17.70
2022-10-15T13:49:14.623Z,17.40
2022-10-15T13:51:46.170Z,18.90
2022-10-15T13:54:21.507Z,18.00
2022-10-15T13:56:55.617Z,18.40
2022-10-15T13:59:24.257Z,19.40
2022-10-15T14:02:01.002Z,19.00
2022-10-15T14:04:31.185Z,18.10
2022-10-15T14:07:23.159Z,18.50
2022-10-15T14:09:51.626Z,18.80
2022-10-15T14:12:19.538Z,17.90
2022-10-15T14:14:49.342Z,18.90
2022-10-15T14:17:17.628Z,18.20
2022-10-15T14:20:14.714Z,19.10
2022-10-15T14:22:43.411Z,18.90
2022-10-15T14:27:45.862Z,18.50
2022-10-15T14:30:20.737Z,19.90
2022-10-15T14:32:53.015Z,20.50
2022-10-15T14:35:33.127Z,18.80
2022-10-15T14:38:02.631Z,20.90
2022-10-15T14:40:30.855Z,19.00
2022-10-15T14:43:15.025Z,19.90
2022-10-15T14:46:07.739Z,18.90
2022-10-15T14:48:38.472Z,16.80
2022-10-15T14:51:12.458Z,18.70
2022-10-15T14:53:46.381Z,19.20
2022-10-15T14:56:20.884Z,18.00
2022-10-15T14:58:53.282Z,19.00
2022-10-15T15:01:21.472Z,17.30
2022-10-15T15:03:52.808Z,17.60
2022-10-15T15:06:20.993Z,18.90
2022-10-15T15:08:48.747Z,18.90
2022-10-15T15:11:25.415Z,20.00
2022-10-15T15:13:54.142Z,18.10
2022-10-15T15:16:22.298Z,19.40
2022-10-15T15:18:50.011Z,18.90
2022-10-15T15:21:22.306Z,19.50
2022-10-15T15:23:50.825Z,18.40
2022-10-15T15:26:18.521Z,20.00
2022-10-15T15:28:46.295Z,19.90
2022-10-15T15:31:18.019Z,19.60
2022-10-15T15:33:46.097Z,20.30
2022-10-15T15:36:20.581Z,19.80
2022-10-15T15:38:50.545Z,20.80
2022-10-15T15:41:20.820Z,23.50
2022-10-15T15:43:49.649Z,22.50
2022-10-15T15:46:17.596Z,24.70
2022-10-15T15:48:45.401Z,23.00
2022-10-15T15:51:26.569Z,22.50
2022-10-15T15:53:55.306Z,21.60
2022-10-15T15:56:23.949Z,21.00
2022-10-15T15:58:51.714Z,21.10
2022-10-15T16:01:20.412Z,22.30
2022-10-15T16:03:48.344Z,21.20
2022-10-15T16:06:16.250Z,26.00
2022-10-15T16:08:43.988Z,25.30
2022-10-15T16:11:11.716Z,24.30
2022-10-15T16:13:40.987Z,24.00
2022-10-15T16:16:09.598Z,23.70
2022-10-15T16:18:37.959Z,23.90
2022-10-15T16:21:05.932Z,24.30
2022-10-15T16:23:33.628Z,24.60
2022-10-15T16:26:01.334Z,24.60
2022-10-15T16:28:29.102Z,24.70
2022-10-15T16:31:14.115Z,23.00
2022-10-15T16:33:41.970Z,23.80
2022-10-15T16:36:09.840Z,26.30
2022-10-15T16:38:41.783Z,23.20
2022-10-15T16:41:13.449Z,24.90
2022-10-15T16:43:41.737Z,23.50
2022-10-15T16:46:09.514Z,24.80
2022-10-15T16:48:37.278Z,24.40
2022-10-15T16:51:10.882Z,24.50
2022-10-15T16:53:40.062Z,24.60
2022-10-15T16:56:13.400Z,26.00
2022-10-15T16:58:41.360Z,25.00
2022-10-15T17:01:13.710Z,26.70
2022-10-15T17:03:42.294Z,25.80
2022-10-15T17:06:14.978Z,28.10
2022-10-15T17:08:48.444Z,27.00
2022-10-15T17:11:19.835Z,28.80
2022-10-15T17:13:50.582Z,28.20
2022-10-15T17:16:22.951Z,28.60
2022-10-15T17:21:25.982Z,27.80
2022-10-15T17:23:55.852Z,28.70
2022-10-15T17:26:26.906Z,31.40
2022-10-15T17:28:54.615Z,27.10
2022-10-15T17:31:24.587Z,27.70
2022-10-15T17:34:04.042Z,29.00
2022-10-15T17:36:35.802Z,29.50
2022-10-15T17:39:04.071Z,28.40
2022-10-15T17:41:32.085Z,28.70
2022-10-15T17:43:59.929Z,30.70
2022-10-15T17:46:29.182Z,29.10
2022-10-15T17:48:58.530Z,29.90
2022-10-15T17:51:29.590Z,29.90
2022-10-15T17:53:59.627Z,29.60
2022-10-15T17:56:33.932Z,31.50
2022-10-15T17:59:04.908Z,29.10
2022-10-15T18:04:23.815Z,32.50
2022-10-15T18:06:51.605Z,31.90
2022-10-15T18:09:26.264Z,32.10
2022-10-15T18:11:57.768Z,32.00
2022-10-15T18:14:29.353Z,31.30
2022-10-15T18:16:57.633Z,33.40
2022-10-15T18:19:26.821Z,32.20
2022-10-15T18:21:55.766Z,31.10
2022-10-15T18:24:24.401Z,33.40
2022-10-15T18:26:53.195Z,31.10
2022-10-15T18:29:22.489Z,32.60
2022-10-15T18:31:56.253Z,32.00
2022-10-15T18:34:25.408Z,30.10
2022-10-15T18:36:53.097Z,28.90
2022-10-15T18:39:23.381Z,30.30
2022-10-15T18:41:51.165Z,31.00
2022-10-15T18:44:21.617Z,28.30
2022-10-15T18:46:51.108Z,28.30
2022-10-15T18:49:20.918Z,29.80
2022-10-15T18:51:52.465Z,31.10
2022-10-15T18:54:21.051Z,29.20
2022-10-15T18:56:49.349Z,29.00
2022-10-15T18:59:20.024Z,29.20
2022-10-15T19:01:50.326Z,31.50
2022-10-15T19:04:20.732Z,29.30
2022-10-15T19:06:51.365Z,28.60
2022-10-15T19:09:22.193Z,34.40
2022-10-15T19:11:52.212Z,29.90
2022-10-15T19:14:20.926Z,31.50
2022-10-15T19:16:49.278Z,33.40
2022-10-15T19:19:20.740Z,32.70
2022-10-15T19:21:50.119Z,32.50
2022-10-15T19:24:20.093Z,33.50
2022-10-15T19:26:49.847Z,33.50
2022-10-15T19:29:18.888Z,32.50
2022-10-15T19:31:49.222Z,32.40
2022-10-15T19:34:17.396Z,30.30
2022-10-15T19:36:47.734Z,30.60
2022-10-15T19:39:18.150Z,30.70
2022-10-15T19:41:46.169Z,33.40
2022-10-15T19:44:17.074Z,34.80
2022-10-15T19:46:46.791Z,33.40
2022-10-15T19:49:15.270Z,33.60
2022-10-15T19:51:43.339Z,31.40
2022-10-15T19:54:11.125Z,27.70
2022-10-15T19:56:38.976Z,34.10
2022-10-15T19:59:07.155Z,27.50
2022-10-15T20:01:36.765Z,28.60
2022-10-15T20:04:07.177Z,28.60
2022-10-15T20:06:38.312Z,30.30
2022-10-15T20:09:07.564Z,29.80
2022-10-15T20:11:37.358Z,25.90
2022-10-15T20:14:06.050Z,27.00
2022-10-15T20:16:33.963Z,26.90
2022-10-15T20:19:06.285Z,28.30
2022-10-15T20:21:34.047Z,27.80
2022-10-15T20:24:05.179Z,25.80
2022-10-15T20:26:33.459Z,27.20
2022-10-15T20:29:01.680Z,27.10
2022-10-15T20:31:33.002Z,26.70
2022-10-15T20:34:03.084Z,29.00
2022-10-15T20:36:31.232Z,29.90
2022-10-15T20:39:00.931Z,28.70
2022-10-15T20:41:29.004Z,28.60
2022-10-15T20:43:57.541Z,29.20
2022-10-15T20:46:34.362Z,27.30
2022-10-15T20:49:09.390Z,26.40
2022-10-15T20:51:40.297Z,28.20
2022-10-15T20:54:09.164Z,26.30
2022-10-15T20:56:37.407Z,24.40
2022-10-15T20:59:05.745Z,25.20
2022-10-15T21:01:35.063Z,23.90
2022-10-15T21:04:04.095Z,24.80
2022-10-15T21:06:32.726Z,23.70
2022-10-15T21:09:00.876Z,24.10
2022-10-15T21:11:28.929Z,25.80
2022-10-15T21:13:57.088Z,25.00
2022-10-15T21:16:28.195Z,24.30
2022-10-15T21:18:56.522Z,20.90
2022-10-15T21:21:24.225Z,21.50
2022-10-15T21:23:52.413Z,21.30
2022-10-15T21:26:21.591Z,23.20
2022-10-15T21:28:55.366Z,23.50
2022-10-15T21:31:23.733Z,21.90
2022-10-15T21:33:52.161Z,22.20
2022-10-15T21:36:27.954Z,22.30
2022-10-15T21:38:58.658Z,21.20
2022-10-15T21:41:28.564Z,20.90
2022-10-15T21:43:56.647Z,20.50
2022-10-15T21:46:25.613Z,21.80
2022-10-15T21:48:54.424Z,21.20
2022-10-15T21:51:28.666Z,21.40
2022-10-15T21:53:57.951Z,21.50
2022-10-15T21:56:26.230Z,21.60
2022-10-15T21:58:59.158Z,19.80
2022-10-15T22:01:31.173Z,20.60
2022-10-15T22:04:01.571Z,21.30
2022-10-15T22:06:30.298Z,21.20
2022-10-15T22:08:59.079Z,19.60
2022-10-15T22:11:33.563Z,20.10
2022-10-15T22:14:05.041Z,21.20
2022-10-15T22:16:35.599Z,21.00
2022-10-15T22:19:04.808Z,19.80
2022-10-15T22:21:36.403Z,19.90
2022-10-15T22:24:08.060Z,20.10
2022-10-15T22:26:39.362Z,20.40
2022-10-15T22:29:09.332Z,24.60
2022-10-15T22:31:37.255Z,19.20
2022-10-15T22:34:05.022Z,21.70
2022-10-15T22:36:32.710Z,20.00
2022-10-15T22:39:02.666Z,21.50
2022-10-15T22:41:34.149Z,21.30
2022-10-15T22:44:03.376Z,21.30
2022-10-15T22:46:40.791Z,21.00
2022-10-15T22:49:09.961Z,19.00
2022-10-15T22:51:37.721Z,19.10
2022-10-15T22:54:06.003Z,20.40
2022-10-15T22:56:34.182Z,19.20
2022-10-15T22:59:01.923Z,20.60
2022-10-15T23:01:31.899Z,20.90
2022-10-15T23:04:03.520Z,21.60
2022-10-15T23:06:33.770Z,22.10
2022-10-15T23:09:02.542Z,20.40
2022-10-15T23:11:32.970Z,20.90
2022-10-15T23:14:03.520Z,18.60
2022-10-15T23:16:34.169Z,17.30
2022-10-15T23:19:04.661Z,16.20
2022-10-15T23:21:40.612Z,17.50
2022-10-15T23:24:09.235Z,19.10
2022-10-15T23:26:38.203Z,20.50
2022-10-15T23:29:08.488Z,15.90
2022-10-15T23:31:36.729Z,18.10
2022-10-15T23:34:05.525Z,15.50
2022-10-15T23:36:33.994Z,15.60
2022-10-15T23:39:04.746Z,13.80
2022-10-15T23:41:32.961Z,15.10
2022-10-15T23:44:00.654Z,14.50
2022-10-15T23:46:28.397Z,16.30
2022-10-15T23:48:56.186Z,14.30
2022-10-15T23:51:26.766Z,13.20
2022-10-15T23:53:56.605Z,13.70
2022-10-15T23:56:25.234Z,12.20
2022-10-15T23:58:56.076Z,13.20
